North Attleboro, Massachusetts
Current Conditions -  °F | °C
As of 11:35 AM on Friday 31 Oct 2014 (Local Time) from KSFZ Reporting Station
Scattered Clouds Scattered Clouds  
Wind Chill: 52°   Ceiling: Unl
Heat Index: 52°   Visibility: 10mi
Dew Point: 34°   Wind: 8mph
Humidity: 50%   Direction: 100°E
Pressure: 30"   Gusts: NA
Location:  41.98°N, 71.33°W
Report Text: KSFZ 311535Z 10007KT 060V120 10SM SCT048 11/01 A3000 RMK AO1
Loading
Personal Weather Stations






























Interactive Weather Map
Tropical Storm Tracking
New forecast layout! Learn more

10-Day Weather Forecast

Advertisements
Track Severe Weather on mobile